sensor_id;sensor_type;location;lat;lon;timestamp;P1;durP1;ratioP1;P2;durP2;ratioP2
20067;SDS011;10194;50.824;7.134;2024-03-08T00:00:07;73.43;;;66.33;;
20067;SDS011;10194;50.824;7.134;2024-03-08T00:02:37;72.17;;;65.17;;
20067;SDS011;10194;50.824;7.134;2024-03-08T00:05:06;72.77;;;65.63;;
20067;SDS011;10194;50.824;7.134;2024-03-08T00:07:37;71.67;;;64.70;;
20067;SDS011;10194;50.824;7.134;2024-03-08T00:10:04;73.53;;;66.33;;
20067;SDS011;10194;50.824;7.134;2024-03-08T00:12:40;72.97;;;65.77;;
20067;SDS011;10194;50.824;7.134;2024-03-08T00:15:08;72.83;;;65.63;;
20067;SDS011;10194;50.824;7.134;2024-03-08T00:17:35;72.37;;;65.20;;
20067;SDS011;10194;50.824;7.134;2024-03-08T00:20:01;71.73;;;64.63;;
20067;SDS011;10194;50.824;7.134;2024-03-08T00:22:33;73.00;;;65.90;;
20067;SDS011;10194;50.824;7.134;2024-03-08T00:25:00;73.47;;;66.17;;
20067;SDS011;10194;50.824;7.134;2024-03-08T00:27:30;72.47;;;65.37;;
20067;SDS011;10194;50.824;7.134;2024-03-08T00:29:56;72.23;;;65.03;;
20067;SDS011;10194;50.824;7.134;2024-03-08T00:32:22;71.53;;;64.37;;
20067;SDS011;10194;50.824;7.134;2024-03-08T00:34:53;72.73;;;65.57;;
20067;SDS011;10194;50.824;7.134;2024-03-08T00:37:21;73.50;;;66.10;;
20067;SDS011;10194;50.824;7.134;2024-03-08T00:39:47;72.30;;;65.10;;
20067;SDS011;10194;50.824;7.134;2024-03-08T00:42:17;72.93;;;65.60;;
20067;SDS011;10194;50.824;7.134;2024-03-08T00:44:43;71.00;;;63.93;;
20067;SDS011;10194;50.824;7.134;2024-03-08T00:47:09;72.67;;;65.47;;
20067;SDS011;10194;50.824;7.134;2024-03-08T00:49:36;71.50;;;64.50;;
20067;SDS011;10194;50.824;7.134;2024-03-08T00:52:03;72.70;;;65.53;;
20067;SDS011;10194;50.824;7.134;2024-03-08T00:54:31;73.00;;;65.80;;
20067;SDS011;10194;50.824;7.134;2024-03-08T00:56:58;72.03;;;64.97;;
20067;SDS011;10194;50.824;7.134;2024-03-08T00:59:25;72.83;;;65.70;;
20067;SDS011;10194;50.824;7.134;2024-03-08T01:01:51;72.93;;;65.77;;
20067;SDS011;10194;50.824;7.134;2024-03-08T01:04:16;74.10;;;66.60;;
20067;SDS011;10194;50.824;7.134;2024-03-08T01:06:43;74.00;;;66.63;;
20067;SDS011;10194;50.824;7.134;2024-03-08T01:09:12;73.47;;;66.10;;
20067;SDS011;10194;50.824;7.134;2024-03-08T01:11:38;72.73;;;65.53;;
20067;SDS011;10194;50.824;7.134;2024-03-08T01:14:04;72.30;;;65.10;;
20067;SDS011;10194;50.824;7.134;2024-03-08T01:16:30;83.63;;;74.57;;
20067;SDS011;10194;50.824;7.134;2024-03-08T01:18:58;76.87;;;69.03;;
20067;SDS011;10194;50.824;7.134;2024-03-08T01:21:24;74.33;;;66.97;;
20067;SDS011;10194;50.824;7.134;2024-03-08T01:23:49;73.20;;;65.97;;
20067;SDS011;10194;50.824;7.134;2024-03-08T01:26:15;74.10;;;66.67;;
20067;SDS011;10194;50.824;7.134;2024-03-08T01:28:41;72.73;;;65.40;;
20067;SDS011;10194;50.824;7.134;2024-03-08T01:31:07;72.80;;;65.57;;
20067;SDS011;10194;50.824;7.134;2024-03-08T01:33:33;72.60;;;65.37;;
20067;SDS011;10194;50.824;7.134;2024-03-08T01:35:58;73.00;;;65.83;;
20067;SDS011;10194;50.824;7.134;2024-03-08T01:38:24;74.77;;;67.30;;
20067;SDS011;10194;50.824;7.134;2024-03-08T01:40:51;72.90;;;65.60;;
20067;SDS011;10194;50.824;7.134;2024-03-08T01:43:20;72.87;;;65.53;;
20067;SDS011;10194;50.824;7.134;2024-03-08T01:45:53;73.77;;;66.27;;
20067;SDS011;10194;50.824;7.134;2024-03-08T01:48:27;74.57;;;67.07;;
20067;SDS011;10194;50.824;7.134;2024-03-08T01:50:54;74.37;;;66.80;;
20067;SDS011;10194;50.824;7.134;2024-03-08T01:53:22;73.83;;;66.47;;
20067;SDS011;10194;50.824;7.134;2024-03-08T01:55:50;73.53;;;66.23;;
20067;SDS011;10194;50.824;7.134;2024-03-08T01:58:20;74.20;;;66.60;;
20067;SDS011;10194;50.824;7.134;2024-03-08T02:00:47;73.70;;;66.23;;
20067;SDS011;10194;50.824;7.134;2024-03-08T02:03:14;73.53;;;66.07;;
20067;SDS011;10194;50.824;7.134;2024-03-08T02:05:41;74.20;;;66.87;;
20067;SDS011;10194;50.824;7.134;2024-03-08T02:08:08;73.30;;;65.90;;
20067;SDS011;10194;50.824;7.134;2024-03-08T02:10:39;74.23;;;66.60;;
20067;SDS011;10194;50.824;7.134;2024-03-08T02:13:12;73.97;;;66.40;;
20067;SDS011;10194;50.824;7.134;2024-03-08T02:16:11;73.40;;;65.90;;
20067;SDS011;10194;50.824;7.134;2024-03-08T02:18:33;73.47;;;65.97;;
20067;SDS011;10194;50.824;7.134;2024-03-08T02:21:04;71.27;;;64.03;;
20067;SDS011;10194;50.824;7.134;2024-03-08T02:23:32;73.73;;;66.17;;
20067;SDS011;10194;50.824;7.134;2024-03-08T02:25:58;72.43;;;65.13;;
20067;SDS011;10194;50.824;7.134;2024-03-08T02:28:24;72.47;;;65.07;;
20067;SDS011;10194;50.824;7.134;2024-03-08T02:30:50;73.23;;;65.73;;
20067;SDS011;10194;50.824;7.134;2024-03-08T02:33:20;73.43;;;65.83;;
20067;SDS011;10194;50.824;7.134;2024-03-08T02:35:48;72.30;;;64.90;;
20067;SDS011;10194;50.824;7.134;2024-03-08T02:38:14;74.47;;;66.87;;
20067;SDS011;10194;50.824;7.134;2024-03-08T02:40:43;71.67;;;64.40;;
20067;SDS011;10194;50.824;7.134;2024-03-08T02:43:11;73.40;;;65.83;;
20067;SDS011;10194;50.824;7.134;2024-03-08T02:45:38;73.20;;;65.70;;
20067;SDS011;10194;50.824;7.134;2024-03-08T02:48:04;73.40;;;65.90;;
20067;SDS011;10194;50.824;7.134;2024-03-08T02:50:33;73.10;;;65.67;;
20067;SDS011;10194;50.824;7.134;2024-03-08T02:53:00;73.33;;;65.83;;
20067;SDS011;10194;50.824;7.134;2024-03-08T02:55:26;73.70;;;66.10;;
20067;SDS011;10194;50.824;7.134;2024-03-08T02:57:52;72.83;;;65.30;;
20067;SDS011;10194;50.824;7.134;2024-03-08T03:00:21;74.53;;;66.73;;
20067;SDS011;10194;50.824;7.134;2024-03-08T03:02:49;72.90;;;65.40;;
20067;SDS011;10194;50.824;7.134;2024-03-08T03:05:19;73.50;;;66.00;;
20067;SDS011;10194;50.824;7.134;2024-03-08T03:07:45;73.80;;;66.20;;
20067;SDS011;10194;50.824;7.134;2024-03-08T03:10:11;74.00;;;66.40;;
20067;SDS011;10194;50.824;7.134;2024-03-08T03:12:37;73.90;;;66.27;;
20067;SDS011;10194;50.824;7.134;2024-03-08T03:15:03;73.23;;;65.63;;
20067;SDS011;10194;50.824;7.134;2024-03-08T03:17:31;73.97;;;66.30;;
20067;SDS011;10194;50.824;7.134;2024-03-08T03:19:57;72.87;;;65.37;;
20067;SDS011;10194;50.824;7.134;2024-03-08T03:22:23;73.37;;;65.77;;
20067;SDS011;10194;50.824;7.134;2024-03-08T03:24:50;73.17;;;65.77;;
20067;SDS011;10194;50.824;7.134;2024-03-08T03:27:16;73.67;;;66.17;;
20067;SDS011;10194;50.824;7.134;2024-03-08T03:29:43;73.33;;;65.97;;
20067;SDS011;10194;50.824;7.134;2024-03-08T03:32:12;73.67;;;66.23;;
20067;SDS011;10194;50.824;7.134;2024-03-08T03:34:38;73.13;;;65.73;;
20067;SDS011;10194;50.824;7.134;2024-03-08T03:37:09;73.13;;;65.63;;
20067;SDS011;10194;50.824;7.134;2024-03-08T03:39:38;72.87;;;65.37;;
20067;SDS011;10194;50.824;7.134;2024-03-08T03:42:17;73.33;;;65.73;;
20067;SDS011;10194;50.824;7.134;2024-03-08T03:44:47;73.30;;;65.70;;
20067;SDS011;10194;50.824;7.134;2024-03-08T03:47:14;74.00;;;66.40;;
20067;SDS011;10194;50.824;7.134;2024-03-08T03:49:40;72.57;;;65.17;;
20067;SDS011;10194;50.824;7.134;2024-03-08T03:52:07;72.33;;;64.97;;
20067;SDS011;10194;50.824;7.134;2024-03-08T03:54:34;73.37;;;65.77;;
20067;SDS011;10194;50.824;7.134;2024-03-08T03:56:59;72.93;;;65.33;;
20067;SDS011;10194;50.824;7.134;2024-03-08T03:59:26;73.20;;;65.50;;
20067;SDS011;10194;50.824;7.134;2024-03-08T04:01:52;73.80;;;66.20;;
20067;SDS011;10194;50.824;7.134;2024-03-08T04:04:19;73.83;;;66.23;;
20067;SDS011;10194;50.824;7.134;2024-03-08T04:06:46;73.17;;;65.63;;
20067;SDS011;10194;50.824;7.134;2024-03-08T04:09:11;73.53;;;65.83;;
20067;SDS011;10194;50.824;7.134;2024-03-08T04:11:38;72.73;;;65.23;;
20067;SDS011;10194;50.824;7.134;2024-03-08T04:14:04;72.60;;;65.10;;
20067;SDS011;10194;50.824;7.134;2024-03-08T04:16:30;73.33;;;65.73;;
20067;SDS011;10194;50.824;7.134;2024-03-08T04:18:57;77.23;;;68.93;;
20067;SDS011;10194;50.824;7.134;2024-03-08T04:21:23;73.37;;;65.77;;
20067;SDS011;10194;50.824;7.134;2024-03-08T04:23:49;74.20;;;66.60;;
20067;SDS011;10194;50.824;7.134;2024-03-08T04:26:15;74.50;;;66.83;;
20067;SDS011;10194;50.824;7.134;2024-03-08T04:28:40;75.87;;;68.17;;
20067;SDS011;10194;50.824;7.134;2024-03-08T04:31:06;75.30;;;67.80;;
20067;SDS011;10194;50.824;7.134;2024-03-08T04:33:32;76.60;;;69.00;;
20067;SDS011;10194;50.824;7.134;2024-03-08T04:36:00;77.53;;;70.03;;
20067;SDS011;10194;50.824;7.134;2024-03-08T04:38:29;76.83;;;69.13;;
20067;SDS011;10194;50.824;7.134;2024-03-08T04:40:55;77.00;;;69.40;;
20067;SDS011;10194;50.824;7.134;2024-03-08T04:43:22;77.10;;;69.43;;
20067;SDS011;10194;50.824;7.134;2024-03-08T04:45:51;75.23;;;67.63;;
20067;SDS011;10194;50.824;7.134;2024-03-08T04:48:18;75.90;;;68.27;;
20067;SDS011;10194;50.824;7.134;2024-03-08T04:50:45;75.03;;;67.50;;
20067;SDS011;10194;50.824;7.134;2024-03-08T04:53:11;74.60;;;67.00;;
20067;SDS011;10194;50.824;7.134;2024-03-08T04:55:37;74.70;;;67.13;;
20067;SDS011;10194;50.824;7.134;2024-03-08T04:58:03;75.60;;;68.00;;
20067;SDS011;10194;50.824;7.134;2024-03-08T05:00:32;74.47;;;66.87;;
20067;SDS011;10194;50.824;7.134;2024-03-08T05:02:58;76.70;;;69.10;;
20067;SDS011;10194;50.824;7.134;2024-03-08T05:05:24;75.73;;;68.03;;
20067;SDS011;10194;50.824;7.134;2024-03-08T05:07:51;75.90;;;68.27;;
20067;SDS011;10194;50.824;7.134;2024-03-08T05:10:16;75.07;;;67.40;;
20067;SDS011;10194;50.824;7.134;2024-03-08T05:12:42;74.60;;;67.07;;
20067;SDS011;10194;50.824;7.134;2024-03-08T05:15:09;76.70;;;69.10;;
20067;SDS011;10194;50.824;7.134;2024-03-08T05:17:35;77.00;;;69.43;;
20067;SDS011;10194;50.824;7.134;2024-03-08T05:20:01;76.70;;;69.10;;
20067;SDS011;10194;50.824;7.134;2024-03-08T05:22:27;79.00;;;71.40;;
20067;SDS011;10194;50.824;7.134;2024-03-08T05:24:53;77.37;;;69.87;;
20067;SDS011;10194;50.824;7.134;2024-03-08T05:27:18;78.10;;;70.47;;
20067;SDS011;10194;50.824;7.134;2024-03-08T05:29:44;76.93;;;69.47;;
20067;SDS011;10194;50.824;7.134;2024-03-08T05:32:11;78.23;;;70.73;;
20067;SDS011;10194;50.824;7.134;2024-03-08T05:34:37;77.77;;;70.33;;
20067;SDS011;10194;50.824;7.134;2024-03-08T05:37:03;77.67;;;70.07;;
20067;SDS011;10194;50.824;7.134;2024-03-08T05:39:29;76.10;;;68.47;;
20067;SDS011;10194;50.824;7.134;2024-03-08T05:41:55;74.43;;;66.83;;
20067;SDS011;10194;50.824;7.134;2024-03-08T05:44:21;74.87;;;67.23;;
20067;SDS011;10194;50.824;7.134;2024-03-08T05:46:47;73.93;;;66.37;;
20067;SDS011;10194;50.824;7.134;2024-03-08T05:49:13;73.47;;;65.93;;
20067;SDS011;10194;50.824;7.134;2024-03-08T05:51:39;73.70;;;66.10;;
20067;SDS011;10194;50.824;7.134;2024-03-08T05:54:09;73.80;;;66.23;;
20067;SDS011;10194;50.824;7.134;2024-03-08T05:56:37;74.77;;;67.07;;
20067;SDS011;10194;50.824;7.134;2024-03-08T05:59:07;73.90;;;66.37;;
20067;SDS011;10194;50.824;7.134;2024-03-08T06:01:32;74.73;;;67.07;;
20067;SDS011;10194;50.824;7.134;2024-03-08T06:04:01;73.13;;;65.63;;
20067;SDS011;10194;50.824;7.134;2024-03-08T06:06:28;74.57;;;66.97;;
20067;SDS011;10194;50.824;7.134;2024-03-08T06:08:54;78.80;;;70.57;;
20067;SDS011;10194;50.824;7.134;2024-03-08T06:11:24;76.27;;;68.57;;
20067;SDS011;10194;50.824;7.134;2024-03-08T06:13:55;74.63;;;67.17;;
20067;SDS011;10194;50.824;7.134;2024-03-08T06:16:25;75.53;;;67.97;;
20067;SDS011;10194;50.824;7.134;2024-03-08T06:18:54;80.47;;;71.97;;
20067;SDS011;10194;50.824;7.134;2024-03-08T06:21:22;76.37;;;68.50;;
20067;SDS011;10194;50.824;7.134;2024-03-08T06:23:52;75.27;;;67.77;;
20067;SDS011;10194;50.824;7.134;2024-03-08T06:26:22;75.93;;;68.37;;
20067;SDS011;10194;50.824;7.134;2024-03-08T06:28:53;80.73;;;72.30;;
20067;SDS011;10194;50.824;7.134;2024-03-08T06:31:20;76.33;;;68.67;;
20067;SDS011;10194;50.824;7.134;2024-03-08T06:33:45;76.40;;;68.80;;
20067;SDS011;10194;50.824;7.134;2024-03-08T06:36:11;77.27;;;69.87;;
20067;SDS011;10194;50.824;7.134;2024-03-08T06:38:40;80.43;;;73.00;;
20067;SDS011;10194;50.824;7.134;2024-03-08T06:41:08;81.53;;;74.07;;
20067;SDS011;10194;50.824;7.134;2024-03-08T06:43:40;80.70;;;73.27;;
20067;SDS011;10194;50.824;7.134;2024-03-08T06:46:09;81.70;;;74.20;;
20067;SDS011;10194;50.824;7.134;2024-03-08T06:48:37;81.90;;;74.37;;
20067;SDS011;10194;50.824;7.134;2024-03-08T06:51:06;80.60;;;73.13;;
20067;SDS011;10194;50.824;7.134;2024-03-08T06:53:32;79.87;;;72.27;;
20067;SDS011;10194;50.824;7.134;2024-03-08T06:55:59;79.00;;;71.33;;
20067;SDS011;10194;50.824;7.134;2024-03-08T06:58:27;79.70;;;71.67;;
20067;SDS011;10194;50.824;7.134;2024-03-08T07:00:53;78.77;;;70.77;;
20067;SDS011;10194;50.824;7.134;2024-03-08T07:03:20;78.17;;;70.20;;
20067;SDS011;10194;50.824;7.134;2024-03-08T07:05:47;78.13;;;70.13;;
20067;SDS011;10194;50.824;7.134;2024-03-08T07:08:13;78.13;;;70.13;;
20067;SDS011;10194;50.824;7.134;2024-03-08T07:10:39;76.67;;;68.77;;
20067;SDS011;10194;50.824;7.134;2024-03-08T07:13:06;77.33;;;69.53;;
20067;SDS011;10194;50.824;7.134;2024-03-08T07:15:33;77.77;;;69.73;;
20067;SDS011;10194;50.824;7.134;2024-03-08T07:18:00;77.00;;;69.10;;
20067;SDS011;10194;50.824;7.134;2024-03-08T07:20:26;79.00;;;71.00;;
20067;SDS011;10194;50.824;7.134;2024-03-08T07:22:53;79.53;;;71.63;;
20067;SDS011;10194;50.824;7.134;2024-03-08T07:25:20;80.80;;;72.73;;
20067;SDS011;10194;50.824;7.134;2024-03-08T07:27:49;80.17;;;72.27;;
20067;SDS011;10194;50.824;7.134;2024-03-08T07:30:17;81.17;;;73.23;;
20067;SDS011;10194;50.824;7.134;2024-03-08T07:33:03;82.97;;;75.00;;
20067;SDS011;10194;50.824;7.134;2024-03-08T07:35:29;87.27;;;79.37;;
20067;SDS011;10194;50.824;7.134;2024-03-08T07:37:56;86.23;;;78.33;;
20067;SDS011;10194;50.824;7.134;2024-03-08T07:40:22;83.97;;;76.20;;
20067;SDS011;10194;50.824;7.134;2024-03-08T07:42:48;85.90;;;78.10;;
20067;SDS011;10194;50.824;7.134;2024-03-08T07:45:15;85.97;;;78.17;;
20067;SDS011;10194;50.824;7.134;2024-03-08T07:47:41;87.00;;;79.13;;
20067;SDS011;10194;50.824;7.134;2024-03-08T07:50:08;85.97;;;78.10;;
20067;SDS011;10194;50.824;7.134;2024-03-08T07:52:34;82.87;;;75.27;;
20067;SDS011;10194;50.824;7.134;2024-03-08T07:55:03;82.53;;;74.83;;
20067;SDS011;10194;50.824;7.134;2024-03-08T07:57:30;81.90;;;74.27;;
20067;SDS011;10194;50.824;7.134;2024-03-08T07:59:56;79.70;;;72.30;;
20067;SDS011;10194;50.824;7.134;2024-03-08T08:02:23;79.47;;;72.07;;
20067;SDS011;10194;50.824;7.134;2024-03-08T08:04:48;78.27;;;70.97;;
20067;SDS011;10194;50.824;7.134;2024-03-08T08:07:14;79.10;;;71.77;;
20067;SDS011;10194;50.824;7.134;2024-03-08T08:09:40;77.50;;;70.20;;
20067;SDS011;10194;50.824;7.134;2024-03-08T08:12:08;71.20;;;64.33;;
20067;SDS011;10194;50.824;7.134;2024-03-08T08:14:37;65.47;;;58.87;;
20067;SDS011;10194;50.824;7.134;2024-03-08T08:17:04;59.83;;;53.53;;
20067;SDS011;10194;50.824;7.134;2024-03-08T08:19:30;56.43;;;50.23;;
20067;SDS011;10194;50.824;7.134;2024-03-08T08:21:57;54.60;;;48.23;;
20067;SDS011;10194;50.824;7.134;2024-03-08T08:24:23;55.40;;;47.87;;
20067;SDS011;10194;50.824;7.134;2024-03-08T08:26:49;54.93;;;47.63;;
20067;SDS011;10194;50.824;7.134;2024-03-08T08:29:15;55.30;;;47.43;;
20067;SDS011;10194;50.824;7.134;2024-03-08T08:31:41;53.70;;;46.70;;
20067;SDS011;10194;50.824;7.134;2024-03-08T08:34:08;52.70;;;46.43;;
20067;SDS011;10194;50.824;7.134;2024-03-08T08:36:36;54.10;;;46.67;;
20067;SDS011;10194;50.824;7.134;2024-03-08T08:39:03;59.00;;;49.43;;
20067;SDS011;10194;50.824;7.134;2024-03-08T08:41:36;53.73;;;47.00;;
20067;SDS011;10194;50.824;7.134;2024-03-08T08:44:02;54.63;;;47.23;;
20067;SDS011;10194;50.824;7.134;2024-03-08T08:46:27;55.33;;;47.73;;
20067;SDS011;10194;50.824;7.134;2024-03-08T08:48:53;60.53;;;50.57;;
20067;SDS011;10194;50.824;7.134;2024-03-08T08:51:19;55.87;;;49.00;;
20067;SDS011;10194;50.824;7.134;2024-03-08T08:53:45;55.63;;;49.63;;
20067;SDS011;10194;50.824;7.134;2024-03-08T08:56:13;58.93;;;52.73;;
20067;SDS011;10194;50.824;7.134;2024-03-08T08:58:39;57.67;;;51.37;;
20067;SDS011;10194;50.824;7.134;2024-03-08T09:01:08;58.43;;;52.13;;
20067;SDS011;10194;50.824;7.134;2024-03-08T09:03:37;59.47;;;53.17;;
20067;SDS011;10194;50.824;7.134;2024-03-08T09:06:05;59.63;;;53.33;;
20067;SDS011;10194;50.824;7.134;2024-03-08T09:08:37;61.03;;;54.73;;
20067;SDS011;10194;50.824;7.134;2024-03-08T09:11:06;62.27;;;55.73;;
20067;SDS011;10194;50.824;7.134;2024-03-08T09:13:32;60.07;;;53.57;;
20067;SDS011;10194;50.824;7.134;2024-03-08T09:15:59;59.60;;;53.20;;
20067;SDS011;10194;50.824;7.134;2024-03-08T09:18:25;60.47;;;53.97;;
20067;SDS011;10194;50.824;7.134;2024-03-08T09:20:51;59.37;;;52.90;;
20067;SDS011;10194;50.824;7.134;2024-03-08T09:23:21;58.93;;;52.63;;
20067;SDS011;10194;50.824;7.134;2024-03-08T09:25:47;60.10;;;53.70;;
20067;SDS011;10194;50.824;7.134;2024-03-08T09:28:13;58.10;;;51.80;;
20067;SDS011;10194;50.824;7.134;2024-03-08T09:30:39;58.13;;;51.37;;
20067;SDS011;10194;50.824;7.134;2024-03-08T09:33:05;66.27;;;55.53;;
20067;SDS011;10194;50.824;7.134;2024-03-08T09:35:32;57.60;;;51.30;;
20067;SDS011;10194;50.824;7.134;2024-03-08T09:37:58;57.27;;;50.97;;
20067;SDS011;10194;50.824;7.134;2024-03-08T09:40:24;62.27;;;53.37;;
20067;SDS011;10194;50.824;7.134;2024-03-08T09:42:50;57.17;;;50.77;;
20067;SDS011;10194;50.824;7.134;2024-03-08T09:45:17;57.33;;;50.90;;
20067;SDS011;10194;50.824;7.134;2024-03-08T09:47:50;56.43;;;50.07;;
20067;SDS011;10194;50.824;7.134;2024-03-08T09:50:18;56.40;;;49.83;;
20067;SDS011;10194;50.824;7.134;2024-03-08T09:52:46;56.77;;;49.97;;
20067;SDS011;10194;50.824;7.134;2024-03-08T09:55:14;57.03;;;49.53;;
20067;SDS011;10194;50.824;7.134;2024-03-08T09:57:43;56.80;;;49.23;;
20067;SDS011;10194;50.824;7.134;2024-03-08T10:00:32;57.50;;;50.57;;
20067;SDS011;10194;50.824;7.134;2024-03-08T10:03:01;56.80;;;49.80;;
20067;SDS011;10194;50.824;7.134;2024-03-08T10:05:28;56.87;;;49.30;;
20067;SDS011;10194;50.824;7.134;2024-03-08T10:07:57;56.03;;;48.43;;
20067;SDS011;10194;50.824;7.134;2024-03-08T10:10:23;58.50;;;49.87;;
20067;SDS011;10194;50.824;7.134;2024-03-08T10:12:49;57.30;;;48.90;;
20067;SDS011;10194;50.824;7.134;2024-03-08T10:15:16;57.03;;;49.20;;
20067;SDS011;10194;50.824;7.134;2024-03-08T10:17:42;59.77;;;51.87;;
20067;SDS011;10194;50.824;7.134;2024-03-08T10:20:18;58.90;;;49.67;;
20067;SDS011;10194;50.824;7.134;2024-03-08T10:22:44;58.40;;;49.47;;
20067;SDS011;10194;50.824;7.134;2024-03-08T10:25:13;56.97;;;49.07;;
20067;SDS011;10194;50.824;7.134;2024-03-08T10:27:39;56.43;;;49.07;;
20067;SDS011;10194;50.824;7.134;2024-03-08T10:30:10;57.30;;;48.80;;
20067;SDS011;10194;50.824;7.134;2024-03-08T10:32:41;63.40;;;51.60;;
20067;SDS011;10194;50.824;7.134;2024-03-08T10:35:07;55.53;;;47.80;;
20067;SDS011;10194;50.824;7.134;2024-03-08T10:37:33;59.37;;;49.60;;
20067;SDS011;10194;50.824;7.134;2024-03-08T10:40:15;55.27;;;47.83;;
20067;SDS011;10194;50.824;7.134;2024-03-08T10:42:47;56.93;;;48.40;;
20067;SDS011;10194;50.824;7.134;2024-03-08T10:48:27;57.27;;;48.60;;
20067;SDS011;10194;50.824;7.134;2024-03-08T10:51:04;56.80;;;48.37;;
20067;SDS011;10194;50.824;7.134;2024-03-08T10:53:30;65.70;;;52.67;;
20067;SDS011;10194;50.824;7.134;2024-03-08T10:55:56;58.07;;;49.50;;
20067;SDS011;10194;50.824;7.134;2024-03-08T10:58:24;57.80;;;48.93;;
20067;SDS011;10194;50.824;7.134;2024-03-08T11:00:52;57.77;;;49.10;;
20067;SDS011;10194;50.824;7.134;2024-03-08T11:06:18;56.83;;;48.67;;
20067;SDS011;10194;50.824;7.134;2024-03-08T11:09:02;62.57;;;51.50;;
20067;SDS011;10194;50.824;7.134;2024-03-08T11:11:32;59.03;;;49.57;;
20067;SDS011;10194;50.824;7.134;2024-03-08T11:13:59;57.50;;;48.93;;
20067;SDS011;10194;50.824;7.134;2024-03-08T11:18:59;65.20;;;52.90;;
20067;SDS011;10194;50.824;7.134;2024-03-08T11:21:56;57.90;;;49.00;;
20067;SDS011;10194;50.824;7.134;2024-03-08T11:24:27;126.07;;;100.67;;
20067;SDS011;10194;50.824;7.134;2024-03-08T11:27:03;60.43;;;50.20;;
20067;SDS011;10194;50.824;7.134;2024-03-08T11:34:40;58.70;;;49.20;;
20067;SDS011;10194;50.824;7.134;2024-03-08T11:37:12;55.07;;;47.67;;
20067;SDS011;10194;50.824;7.134;2024-03-08T11:39:46;57.57;;;48.70;;
20067;SDS011;10194;50.824;7.134;2024-03-08T11:42:14;58.53;;;49.37;;
20067;SDS011;10194;50.824;7.134;2024-03-08T11:44:42;56.97;;;48.57;;
20067;SDS011;10194;50.824;7.134;2024-03-08T11:47:09;58.70;;;49.67;;
20067;SDS011;10194;50.824;7.134;2024-03-08T11:49:36;60.27;;;50.17;;
20067;SDS011;10194;50.824;7.134;2024-03-08T11:52:03;57.37;;;48.93;;
20067;SDS011;10194;50.824;7.134;2024-03-08T11:54:29;60.73;;;50.23;;
20067;SDS011;10194;50.824;7.134;2024-03-08T11:56:56;58.10;;;49.30;;
20067;SDS011;10194;50.824;7.134;2024-03-08T11:59:26;59.30;;;49.93;;
20067;SDS011;10194;50.824;7.134;2024-03-08T12:01:59;58.17;;;49.50;;
20067;SDS011;10194;50.824;7.134;2024-03-08T12:04:28;56.50;;;48.37;;
20067;SDS011;10194;50.824;7.134;2024-03-08T12:06:55;57.43;;;48.93;;
20067;SDS011;10194;50.824;7.134;2024-03-08T12:09:26;58.30;;;49.43;;
20067;SDS011;10194;50.824;7.134;2024-03-08T12:11:52;58.50;;;49.53;;
20067;SDS011;10194;50.824;7.134;2024-03-08T12:14:17;58.13;;;49.13;;
20067;SDS011;10194;50.824;7.134;2024-03-08T12:16:43;59.03;;;49.60;;
20067;SDS011;10194;50.824;7.134;2024-03-08T12:19:09;59.13;;;50.83;;
20067;SDS011;10194;50.824;7.134;2024-03-08T12:21:35;59.73;;;50.27;;
20067;SDS011;10194;50.824;7.134;2024-03-08T12:24:05;57.33;;;49.80;;
20067;SDS011;10194;50.824;7.134;2024-03-08T12:26:36;59.17;;;49.53;;
20067;SDS011;10194;50.824;7.134;2024-03-08T12:31:47;58.60;;;49.77;;
20067;SDS011;10194;50.824;7.134;2024-03-08T12:34:18;59.03;;;49.70;;
20067;SDS011;10194;50.824;7.134;2024-03-08T12:36:45;59.93;;;50.20;;
20067;SDS011;10194;50.824;7.134;2024-03-08T12:39:15;61.00;;;50.43;;
20067;SDS011;10194;50.824;7.134;2024-03-08T12:41:43;60.13;;;49.93;;
20067;SDS011;10194;50.824;7.134;2024-03-08T12:44:09;59.80;;;50.20;;
20067;SDS011;10194;50.824;7.134;2024-03-08T12:46:36;60.10;;;50.17;;
20067;SDS011;10194;50.824;7.134;2024-03-08T12:49:08;64.50;;;52.60;;
20067;SDS011;10194;50.824;7.134;2024-03-08T12:51:37;59.47;;;49.77;;
20067;SDS011;10194;50.824;7.134;2024-03-08T12:54:07;56.90;;;48.80;;
20067;SDS011;10194;50.824;7.134;2024-03-08T12:56:33;61.03;;;50.43;;
20067;SDS011;10194;50.824;7.134;2024-03-08T12:59:02;62.90;;;51.77;;
20067;SDS011;10194;50.824;7.134;2024-03-08T13:01:30;59.73;;;49.97;;
20067;SDS011;10194;50.824;7.134;2024-03-08T13:03:59;58.37;;;49.53;;
20067;SDS011;10194;50.824;7.134;2024-03-08T13:06:28;59.53;;;49.67;;
20067;SDS011;10194;50.824;7.134;2024-03-08T13:08:55;64.37;;;52.13;;
20067;SDS011;10194;50.824;7.134;2024-03-08T13:11:23;59.90;;;50.03;;
20067;SDS011;10194;50.824;7.134;2024-03-08T13:13:50;59.40;;;50.03;;
20067;SDS011;10194;50.824;7.134;2024-03-08T13:16:17;58.80;;;49.50;;
20067;SDS011;10194;50.824;7.134;2024-03-08T13:18:44;60.80;;;50.30;;
20067;SDS011;10194;50.824;7.134;2024-03-08T13:21:13;59.33;;;49.90;;
20067;SDS011;10194;50.824;7.134;2024-03-08T13:23:40;58.73;;;49.53;;
20067;SDS011;10194;50.824;7.134;2024-03-08T13:26:10;59.40;;;49.57;;
20067;SDS011;10194;50.824;7.134;2024-03-08T13:28:41;58.83;;;49.60;;
20067;SDS011;10194;50.824;7.134;2024-03-08T13:31:11;59.33;;;49.70;;
20067;SDS011;10194;50.824;7.134;2024-03-08T13:33:37;61.93;;;50.87;;
20067;SDS011;10194;50.824;7.134;2024-03-08T13:36:07;59.10;;;49.87;;
20067;SDS011;10194;50.824;7.134;2024-03-08T13:38:43;58.20;;;49.23;;
20067;SDS011;10194;50.824;7.134;2024-03-08T13:41:10;61.10;;;50.60;;
20067;SDS011;10194;50.824;7.134;2024-03-08T13:43:39;58.17;;;49.33;;
20067;SDS011;10194;50.824;7.134;2024-03-08T13:46:14;58.50;;;49.37;;
20067;SDS011;10194;50.824;7.134;2024-03-08T13:48:40;58.93;;;49.57;;
20067;SDS011;10194;50.824;7.134;2024-03-08T13:51:07;59.17;;;49.63;;
20067;SDS011;10194;50.824;7.134;2024-03-08T13:53:37;59.87;;;50.10;;
20067;SDS011;10194;50.824;7.134;2024-03-08T13:56:05;60.13;;;50.20;;
20067;SDS011;10194;50.824;7.134;2024-03-08T13:58:31;60.20;;;50.23;;
20067;SDS011;10194;50.824;7.134;2024-03-08T14:00:57;59.93;;;50.17;;
20067;SDS011;10194;50.824;7.134;2024-03-08T14:03:23;60.17;;;50.33;;
20067;SDS011;10194;50.824;7.134;2024-03-08T14:05:49;60.57;;;50.33;;
20067;SDS011;10194;50.824;7.134;2024-03-08T14:08:15;59.77;;;50.03;;
20067;SDS011;10194;50.824;7.134;2024-03-08T14:10:42;59.57;;;49.97;;
20067;SDS011;10194;50.824;7.134;2024-03-08T14:13:11;60.50;;;50.57;;
20067;SDS011;10194;50.824;7.134;2024-03-08T14:15:38;60.30;;;50.47;;
20067;SDS011;10194;50.824;7.134;2024-03-08T14:18:07;59.53;;;49.80;;
20067;SDS011;10194;50.824;7.134;2024-03-08T14:20:33;60.00;;;50.07;;
20067;SDS011;10194;50.824;7.134;2024-03-08T14:22:59;59.90;;;50.13;;
20067;SDS011;10194;50.824;7.134;2024-03-08T14:25:24;62.00;;;51.13;;
20067;SDS011;10194;50.824;7.134;2024-03-08T14:27:51;60.97;;;50.60;;
20067;SDS011;10194;50.824;7.134;2024-03-08T14:30:28;59.73;;;49.93;;
20067;SDS011;10194;50.824;7.134;2024-03-08T14:33:06;59.50;;;50.07;;
20067;SDS011;10194;50.824;7.134;2024-03-08T14:35:36;59.70;;;49.97;;
20067;SDS011;10194;50.824;7.134;2024-03-08T14:38:03;61.20;;;50.77;;
20067;SDS011;10194;50.824;7.134;2024-03-08T14:40:29;62.23;;;51.30;;